sensor_id;sensor_type;location;lat;lon;timestamp;temperature;humidity
16635;DHT22;8431;52.458;9.998;2023-05-24T00:00:43;6.70;99.90
16635;DHT22;8431;52.458;9.998;2023-05-24T00:03:11;6.80;99.90
16635;DHT22;8431;52.458;9.998;2023-05-24T00:05:40;6.70;99.90
16635;DHT22;8431;52.458;9.998;2023-05-24T00:08:08;6.70;99.90
16635;DHT22;8431;52.458;9.998;2023-05-24T00:10:36;6.50;99.90
16635;DHT22;8431;52.458;9.998;2023-05-24T00:13:03;6.50;99.90
16635;DHT22;8431;52.458;9.998;2023-05-24T00:15:30;6.40;99.90
16635;DHT22;8431;52.458;9.998;2023-05-24T00:17:57;6.50;99.90
16635;DHT22;8431;52.458;9.998;2023-05-24T00:20:24;6.40;99.90
16635;DHT22;8431;52.458;9.998;2023-05-24T00:22:51;6.40;99.90
16635;DHT22;8431;52.458;9.998;2023-05-24T00:25:18;6.40;99.90
16635;DHT22;8431;52.458;9.998;2023-05-24T00:27:55;6.40;99.90
16635;DHT22;8431;52.458;9.998;2023-05-24T00:35:35;6.30;99.90
16635;DHT22;8431;52.458;9.998;2023-05-24T00:38:02;6.30;99.90
16635;DHT22;8431;52.458;9.998;2023-05-24T00:40:29;6.30;99.90
16635;DHT22;8431;52.458;9.998;2023-05-24T00:42:57;6.30;99.90
16635;DHT22;8431;52.458;9.998;2023-05-24T00:45:24;6.30;99.90
16635;DHT22;8431;52.458;9.998;2023-05-24T00:47:51;6.40;99.90
16635;DHT22;8431;52.458;9.998;2023-05-24T00:50:19;6.50;99.90
16635;DHT22;8431;52.458;9.998;2023-05-24T00:52:47;6.60;99.90
16635;DHT22;8431;52.458;9.998;2023-05-24T00:55:15;6.70;99.90
16635;DHT22;8431;52.458;9.998;2023-05-24T00:57:43;6.70;99.90
16635;DHT22;8431;52.458;9.998;2023-05-24T01:00:12;6.70;99.90
16635;DHT22;8431;52.458;9.998;2023-05-24T01:02:40;6.70;99.90
16635;DHT22;8431;52.458;9.998;2023-05-24T01:05:08;6.70;99.90
16635;DHT22;8431;52.458;9.998;2023-05-24T01:07:45;6.70;99.90
16635;DHT22;8431;52.458;9.998;2023-05-24T01:10:26;6.80;99.90
16635;DHT22;8431;52.458;9.998;2023-05-24T01:13:03;6.90;99.90
16635;DHT22;8431;52.458;9.998;2023-05-24T01:15:38;6.90;99.90
16635;DHT22;8431;52.458;9.998;2023-05-24T01:18:11;6.90;99.90
16635;DHT22;8431;52.458;9.998;2023-05-24T01:21:00;6.90;99.90
16635;DHT22;8431;52.458;9.998;2023-05-24T01:23:43;6.90;99.90
16635;DHT22;8431;52.458;9.998;2023-05-24T01:26:18;6.90;99.90
16635;DHT22;8431;52.458;9.998;2023-05-24T01:28:48;6.90;99.90
16635;DHT22;8431;52.458;9.998;2023-05-24T01:31:17;6.90;99.90
16635;DHT22;8431;52.458;9.998;2023-05-24T01:33:45;6.80;99.90
16635;DHT22;8431;52.458;9.998;2023-05-24T01:36:12;6.70;99.90
16635;DHT22;8431;52.458;9.998;2023-05-24T01:38:39;6.70;99.90
16635;DHT22;8431;52.458;9.998;2023-05-24T01:41:17;6.70;99.90
16635;DHT22;8431;52.458;9.998;2023-05-24T01:43:52;6.70;99.90
16635;DHT22;8431;52.458;9.998;2023-05-24T01:46:30;6.70;99.90
16635;DHT22;8431;52.458;9.998;2023-05-24T01:49:08;6.60;99.90
16635;DHT22;8431;52.458;9.998;2023-05-24T01:51:40;6.60;99.90
16635;DHT22;8431;52.458;9.998;2023-05-24T01:54:11;6.60;99.90
16635;DHT22;8431;52.458;9.998;2023-05-24T01:56:40;6.70;99.90
16635;DHT22;8431;52.458;9.998;2023-05-24T01:59:10;6.60;99.90
16635;DHT22;8431;52.458;9.998;2023-05-24T02:01:38;6.70;99.90
16635;DHT22;8431;52.458;9.998;2023-05-24T02:04:06;6.70;99.90
16635;DHT22;8431;52.458;9.998;2023-05-24T02:06:33;6.70;99.90
16635;DHT22;8431;52.458;9.998;2023-05-24T02:09:00;6.60;99.90
16635;DHT22;8431;52.458;9.998;2023-05-24T02:11:27;6.60;99.90
16635;DHT22;8431;52.458;9.998;2023-05-24T02:13:54;6.50;99.90
16635;DHT22;8431;52.458;9.998;2023-05-24T02:16:22;6.50;99.90
16635;DHT22;8431;52.458;9.998;2023-05-24T02:18:51;6.50;99.90
16635;DHT22;8431;52.458;9.998;2023-05-24T02:21:18;6.50;99.90
16635;DHT22;8431;52.458;9.998;2023-05-24T02:23:45;6.50;99.90
16635;DHT22;8431;52.458;9.998;2023-05-24T02:26:12;6.50;99.90
16635;DHT22;8431;52.458;9.998;2023-05-24T02:28:39;6.60;99.90
16635;DHT22;8431;52.458;9.998;2023-05-24T02:31:06;6.60;99.90
16635;DHT22;8431;52.458;9.998;2023-05-24T02:33:34;6.50;99.90
16635;DHT22;8431;52.458;9.998;2023-05-24T02:36:01;6.50;99.90
16635;DHT22;8431;52.458;9.998;2023-05-24T02:38:28;6.60;99.90
16635;DHT22;8431;52.458;9.998;2023-05-24T02:40:56;6.60;99.90
16635;DHT22;8431;52.458;9.998;2023-05-24T02:43:23;6.60;99.90
16635;DHT22;8431;52.458;9.998;2023-05-24T02:45:54;6.60;99.90
16635;DHT22;8431;52.458;9.998;2023-05-24T02:48:21;6.60;99.90
16635;DHT22;8431;52.458;9.998;2023-05-24T02:50:49;6.60;99.90
16635;DHT22;8431;52.458;9.998;2023-05-24T02:53:16;6.60;99.90
16635;DHT22;8431;52.458;9.998;2023-05-24T02:55:43;6.50;99.90
16635;DHT22;8431;52.458;9.998;2023-05-24T02:58:11;6.60;99.90
16635;DHT22;8431;52.458;9.998;2023-05-24T03:00:38;6.50;99.90
16635;DHT22;8431;52.458;9.998;2023-05-24T03:03:05;6.50;99.90
16635;DHT22;8431;52.458;9.998;2023-05-24T03:05:31;6.50;99.90
16635;DHT22;8431;52.458;9.998;2023-05-24T03:08:00;6.50;99.90
16635;DHT22;8431;52.458;9.998;2023-05-24T03:10:27;6.60;99.90
16635;DHT22;8431;52.458;9.998;2023-05-24T03:12:54;6.60;99.90
16635;DHT22;8431;52.458;9.998;2023-05-24T03:15:21;6.60;99.90
16635;DHT22;8431;52.458;9.998;2023-05-24T03:17:48;6.60;99.90
16635;DHT22;8431;52.458;9.998;2023-05-24T03:20:15;6.70;99.90
16635;DHT22;8431;52.458;9.998;2023-05-24T03:22:42;6.70;99.90
16635;DHT22;8431;52.458;9.998;2023-05-24T03:25:10;6.80;99.90
16635;DHT22;8431;52.458;9.998;2023-05-24T03:27:37;6.90;99.90
16635;DHT22;8431;52.458;9.998;2023-05-24T03:30:06;6.90;99.90
16635;DHT22;8431;52.458;9.998;2023-05-24T03:32:33;7.00;99.90
16635;DHT22;8431;52.458;9.998;2023-05-24T03:35:00;7.10;99.90
16635;DHT22;8431;52.458;9.998;2023-05-24T03:37:27;7.10;99.90
16635;DHT22;8431;52.458;9.998;2023-05-24T03:39:54;7.20;99.90
16635;DHT22;8431;52.458;9.998;2023-05-24T03:42:22;7.20;99.90
16635;DHT22;8431;52.458;9.998;2023-05-24T03:44:49;7.30;99.90
16635;DHT22;8431;52.458;9.998;2023-05-24T03:47:16;7.30;99.90
16635;DHT22;8431;52.458;9.998;2023-05-24T03:49:43;7.30;99.90
16635;DHT22;8431;52.458;9.998;2023-05-24T03:52:10;7.20;99.90
16635;DHT22;8431;52.458;9.998;2023-05-24T03:54:37;7.20;99.90
16635;DHT22;8431;52.458;9.998;2023-05-24T03:57:05;7.20;99.90
16635;DHT22;8431;52.458;9.998;2023-05-24T03:59:33;7.20;99.90
16635;DHT22;8431;52.458;9.998;2023-05-24T04:02:03;7.20;99.90
16635;DHT22;8431;52.458;9.998;2023-05-24T04:04:30;7.30;99.90
16635;DHT22;8431;52.458;9.998;2023-05-24T04:06:57;7.30;99.90
16635;DHT22;8431;52.458;9.998;2023-05-24T04:09:24;7.40;99.90
16635;DHT22;8431;52.458;9.998;2023-05-24T04:11:51;7.50;99.90
16635;DHT22;8431;52.458;9.998;2023-05-24T04:14:18;7.50;99.90
16635;DHT22;8431;52.458;9.998;2023-05-24T04:16:55;7.40;99.90
16635;DHT22;8431;52.458;9.998;2023-05-24T04:19:22;7.30;99.90
16635;DHT22;8431;52.458;9.998;2023-05-24T04:21:49;7.40;99.90
16635;DHT22;8431;52.458;9.998;2023-05-24T04:24:16;7.40;99.90
16635;DHT22;8431;52.458;9.998;2023-05-24T04:26:43;7.50;99.90
16635;DHT22;8431;52.458;9.998;2023-05-24T04:29:12;7.60;99.90
16635;DHT22;8431;52.458;9.998;2023-05-24T04:31:40;7.80;99.90
16635;DHT22;8431;52.458;9.998;2023-05-24T04:34:09;7.80;99.90
16635;DHT22;8431;52.458;9.998;2023-05-24T04:36:37;7.90;99.90
16635;DHT22;8431;52.458;9.998;2023-05-24T04:39:05;8.00;99.90
16635;DHT22;8431;52.458;9.998;2023-05-24T04:41:32;8.00;99.90
16635;DHT22;8431;52.458;9.998;2023-05-24T04:44:00;8.10;99.90
16635;DHT22;8431;52.458;9.998;2023-05-24T04:46:27;8.20;99.90
16635;DHT22;8431;52.458;9.998;2023-05-24T04:48:55;8.30;99.90
16635;DHT22;8431;52.458;9.998;2023-05-24T04:51:24;8.40;99.90
16635;DHT22;8431;52.458;9.998;2023-05-24T04:53:51;8.50;99.90
16635;DHT22;8431;52.458;9.998;2023-05-24T04:56:18;8.50;99.90
16635;DHT22;8431;52.458;9.998;2023-05-24T04:58:45;8.60;99.90
16635;DHT22;8431;52.458;9.998;2023-05-24T05:01:11;8.70;99.90
16635;DHT22;8431;52.458;9.998;2023-05-24T05:03:38;8.80;99.90
16635;DHT22;8431;52.458;9.998;2023-05-24T05:06:06;8.90;99.90
16635;DHT22;8431;52.458;9.998;2023-05-24T05:08:34;9.00;99.90
16635;DHT22;8431;52.458;9.998;2023-05-24T05:11:01;9.10;99.90
16635;DHT22;8431;52.458;9.998;2023-05-24T05:13:28;9.10;99.90
16635;DHT22;8431;52.458;9.998;2023-05-24T05:15:57;9.10;99.90
16635;DHT22;8431;52.458;9.998;2023-05-24T05:18:24;9.20;99.90
16635;DHT22;8431;52.458;9.998;2023-05-24T05:20:51;9.40;99.90
16635;DHT22;8431;52.458;9.998;2023-05-24T05:23:18;9.50;99.90
16635;DHT22;8431;52.458;9.998;2023-05-24T05:25:46;9.50;99.90
16635;DHT22;8431;52.458;9.998;2023-05-24T05:28:15;9.70;99.90
16635;DHT22;8431;52.458;9.998;2023-05-24T05:30:42;9.70;99.90
16635;DHT22;8431;52.458;9.998;2023-05-24T05:33:09;9.90;99.90
16635;DHT22;8431;52.458;9.998;2023-05-24T05:35:37;10.10;99.90
16635;DHT22;8431;52.458;9.998;2023-05-24T05:38:04;10.10;99.90
16635;DHT22;8431;52.458;9.998;2023-05-24T05:40:31;9.90;99.90
16635;DHT22;8431;52.458;9.998;2023-05-24T05:42:59;9.90;99.90
16635;DHT22;8431;52.458;9.998;2023-05-24T05:45:29;10.00;99.90
16635;DHT22;8431;52.458;9.998;2023-05-24T05:47:57;10.10;99.90
16635;DHT22;8431;52.458;9.998;2023-05-24T05:50:24;10.10;99.90
16635;DHT22;8431;52.458;9.998;2023-05-24T05:52:51;10.10;99.90
16635;DHT22;8431;52.458;9.998;2023-05-24T05:55:18;10.10;99.90
16635;DHT22;8431;52.458;9.998;2023-05-24T05:57:45;10.10;99.90
16635;DHT22;8431;52.458;9.998;2023-05-24T06:00:15;10.30;99.90
16635;DHT22;8431;52.458;9.998;2023-05-24T06:02:42;10.50;99.90
16635;DHT22;8431;52.458;9.998;2023-05-24T06:05:09;10.80;99.90
16635;DHT22;8431;52.458;9.998;2023-05-24T06:07:36;11.30;99.90
16635;DHT22;8431;52.458;9.998;2023-05-24T06:10:04;11.30;99.90
16635;DHT22;8431;52.458;9.998;2023-05-24T06:12:32;11.10;99.90
16635;DHT22;8431;52.458;9.998;2023-05-24T06:14:58;11.20;99.90
16635;DHT22;8431;52.458;9.998;2023-05-24T06:17:27;11.60;99.90
16635;DHT22;8431;52.458;9.998;2023-05-24T06:19:54;11.90;99.90
16635;DHT22;8431;52.458;9.998;2023-05-24T06:22:21;11.90;99.90
16635;DHT22;8431;52.458;9.998;2023-05-24T06:24:48;11.90;99.90
16635;DHT22;8431;52.458;9.998;2023-05-24T06:27:15;12.10;99.90
16635;DHT22;8431;52.458;9.998;2023-05-24T06:29:42;12.30;99.90
16635;DHT22;8431;52.458;9.998;2023-05-24T06:32:09;12.20;99.90
16635;DHT22;8431;52.458;9.998;2023-05-24T06:34:37;11.70;99.90
16635;DHT22;8431;52.458;9.998;2023-05-24T06:37:04;11.40;99.90
16635;DHT22;8431;52.458;9.998;2023-05-24T06:39:43;11.20;99.90
16635;DHT22;8431;52.458;9.998;2023-05-24T06:42:10;11.10;99.90
16635;DHT22;8431;52.458;9.998;2023-05-24T06:44:37;11.30;99.90
16635;DHT22;8431;52.458;9.998;2023-05-24T06:47:05;11.50;99.90
16635;DHT22;8431;52.458;9.998;2023-05-24T06:49:32;11.60;99.90
16635;DHT22;8431;52.458;9.998;2023-05-24T06:52:00;11.90;99.90
16635;DHT22;8431;52.458;9.998;2023-05-24T06:54:27;11.80;99.90
16635;DHT22;8431;52.458;9.998;2023-05-24T06:56:54;11.90;99.90
16635;DHT22;8431;52.458;9.998;2023-05-24T06:59:22;11.80;99.90
16635;DHT22;8431;52.458;9.998;2023-05-24T07:01:49;11.70;99.90
16635;DHT22;8431;52.458;9.998;2023-05-24T07:04:22;11.90;99.90
16635;DHT22;8431;52.458;9.998;2023-05-24T07:06:48;12.20;99.90
16635;DHT22;8431;52.458;9.998;2023-05-24T07:09:17;12.20;99.90
16635;DHT22;8431;52.458;9.998;2023-05-24T07:11:44;12.10;99.90
16635;DHT22;8431;52.458;9.998;2023-05-24T07:14:11;11.80;99.90
16635;DHT22;8431;52.458;9.998;2023-05-24T07:16:38;11.50;99.90
16635;DHT22;8431;52.458;9.998;2023-05-24T07:19:05;11.30;99.90
16635;DHT22;8431;52.458;9.998;2023-05-24T07:21:32;11.10;99.90
16635;DHT22;8431;52.458;9.998;2023-05-24T07:24:01;11.00;99.90
16635;DHT22;8431;52.458;9.998;2023-05-24T07:26:30;11.00;99.90
16635;DHT22;8431;52.458;9.998;2023-05-24T07:29:08;11.10;99.90
16635;DHT22;8431;52.458;9.998;2023-05-24T07:31:35;11.20;99.90
16635;DHT22;8431;52.458;9.998;2023-05-24T07:34:02;11.20;99.90
16635;DHT22;8431;52.458;9.998;2023-05-24T07:36:29;11.30;99.90
16635;DHT22;8431;52.458;9.998;2023-05-24T07:38:57;11.30;99.90
16635;DHT22;8431;52.458;9.998;2023-05-24T07:41:25;11.30;99.90
16635;DHT22;8431;52.458;9.998;2023-05-24T07:43:56;11.40;99.90
16635;DHT22;8431;52.458;9.998;2023-05-24T07:46:27;11.50;99.90
16635;DHT22;8431;52.458;9.998;2023-05-24T07:48:54;11.60;99.90
16635;DHT22;8431;52.458;9.998;2023-05-24T07:51:22;11.40;99.90
16635;DHT22;8431;52.458;9.998;2023-05-24T07:53:48;11.00;99.90
16635;DHT22;8431;52.458;9.998;2023-05-24T07:56:15;10.60;99.90
16635;DHT22;8431;52.458;9.998;2023-05-24T07:58:43;10.40;99.90
16635;DHT22;8431;52.458;9.998;2023-05-24T08:01:13;10.20;99.90
16635;DHT22;8431;52.458;9.998;2023-05-24T08:03:40;10.00;99.90
16635;DHT22;8431;52.458;9.998;2023-05-24T08:06:07;9.90;99.90
16635;DHT22;8431;52.458;9.998;2023-05-24T08:08:34;9.90;99.90
16635;DHT22;8431;52.458;9.998;2023-05-24T08:11:01;10.00;99.90
16635;DHT22;8431;52.458;9.998;2023-05-24T08:13:36;10.20;99.90
16635;DHT22;8431;52.458;9.998;2023-05-24T08:16:03;10.30;99.90
16635;DHT22;8431;52.458;9.998;2023-05-24T08:18:32;10.50;99.90
16635;DHT22;8431;52.458;9.998;2023-05-24T08:20:59;10.60;99.90
16635;DHT22;8431;52.458;9.998;2023-05-24T08:23:26;10.80;99.90
16635;DHT22;8431;52.458;9.998;2023-05-24T08:25:55;10.90;99.90
16635;DHT22;8431;52.458;9.998;2023-05-24T08:28:22;10.90;99.90
16635;DHT22;8431;52.458;9.998;2023-05-24T08:30:49;10.70;99.90
16635;DHT22;8431;52.458;9.998;2023-05-24T08:33:16;10.60;99.90
16635;DHT22;8431;52.458;9.998;2023-05-24T08:35:45;10.60;99.90
16635;DHT22;8431;52.458;9.998;2023-05-24T08:38:12;10.40;99.90
16635;DHT22;8431;52.458;9.998;2023-05-24T08:40:39;10.40;99.90
16635;DHT22;8431;52.458;9.998;2023-05-24T08:43:07;10.40;99.90
16635;DHT22;8431;52.458;9.998;2023-05-24T08:45:37;10.40;99.90
16635;DHT22;8431;52.458;9.998;2023-05-24T08:48:04;10.50;99.90
16635;DHT22;8431;52.458;9.998;2023-05-24T08:50:32;10.60;99.90
16635;DHT22;8431;52.458;9.998;2023-05-24T08:53:01;10.70;99.90
16635;DHT22;8431;52.458;9.998;2023-05-24T08:55:47;10.70;99.90
16635;DHT22;8431;52.458;9.998;2023-05-24T08:58:17;10.90;99.90
16635;DHT22;8431;52.458;9.998;2023-05-24T09:00:44;11.10;99.90
16635;DHT22;8431;52.458;9.998;2023-05-24T09:03:12;11.20;99.90
16635;DHT22;8431;52.458;9.998;2023-05-24T09:05:40;11.40;99.90
16635;DHT22;8431;52.458;9.998;2023-05-24T09:08:12;11.40;99.90
16635;DHT22;8431;52.458;9.998;2023-05-24T09:10:42;11.40;99.90
16635;DHT22;8431;52.458;9.998;2023-05-24T09:13:11;11.50;99.90
16635;DHT22;8431;52.458;9.998;2023-05-24T09:15:41;11.50;99.90
16635;DHT22;8431;52.458;9.998;2023-05-24T09:18:08;11.60;99.90
16635;DHT22;8431;52.458;9.998;2023-05-24T09:20:35;11.60;99.90
16635;DHT22;8431;52.458;9.998;2023-05-24T09:23:03;11.80;99.90
16635;DHT22;8431;52.458;9.998;2023-05-24T09:25:33;12.00;99.90
16635;DHT22;8431;52.458;9.998;2023-05-24T09:28:05;12.10;99.90
16635;DHT22;8431;52.458;9.998;2023-05-24T09:30:35;12.40;99.90
16635;DHT22;8431;52.458;9.998;2023-05-24T09:33:02;12.50;99.90
16635;DHT22;8431;52.458;9.998;2023-05-24T09:35:30;12.90;99.90
16635;DHT22;8431;52.458;9.998;2023-05-24T09:37:57;13.30;99.90
16635;DHT22;8431;52.458;9.998;2023-05-24T09:40:25;13.70;99.90
16635;DHT22;8431;52.458;9.998;2023-05-24T09:43:04;14.10;99.90
16635;DHT22;8431;52.458;9.998;2023-05-24T09:45:32;14.00;99.90
16635;DHT22;8431;52.458;9.998;2023-05-24T09:47:59;14.00;99.90
16635;DHT22;8431;52.458;9.998;2023-05-24T09:50:25;14.30;99.90
16635;DHT22;8431;52.458;9.998;2023-05-24T09:52:53;14.50;99.90
16635;DHT22;8431;52.458;9.998;2023-05-24T09:55:21;13.90;99.90
16635;DHT22;8431;52.458;9.998;2023-05-24T09:58:03;13.30;99.90
16635;DHT22;8431;52.458;9.998;2023-05-24T10:00:33;13.00;99.90
16635;DHT22;8431;52.458;9.998;2023-05-24T10:03:02;13.00;99.90
16635;DHT22;8431;52.458;9.998;2023-05-24T10:05:30;12.90;99.90
16635;DHT22;8431;52.458;9.998;2023-05-24T10:07:57;13.20;99.90
16635;DHT22;8431;52.458;9.998;2023-05-24T10:10:26;13.10;99.90
16635;DHT22;8431;52.458;9.998;2023-05-24T10:12:55;13.10;99.90
16635;DHT22;8431;52.458;9.998;2023-05-24T10:15:24;12.90;99.90
16635;DHT22;8431;52.458;9.998;2023-05-24T10:17:52;13.00;99.90
16635;DHT22;8431;52.458;9.998;2023-05-24T10:20:19;12.70;99.90
16635;DHT22;8431;52.458;9.998;2023-05-24T10:22:52;12.90;99.90
16635;DHT22;8431;52.458;9.998;2023-05-24T10:25:22;13.20;99.90
16635;DHT22;8431;52.458;9.998;2023-05-24T10:27:53;13.60;99.90
16635;DHT22;8431;52.458;9.998;2023-05-24T10:30:30;14.00;99.90
16635;DHT22;8431;52.458;9.998;2023-05-24T10:32:58;14.10;99.90
16635;DHT22;8431;52.458;9.998;2023-05-24T10:35:27;13.80;99.90
16635;DHT22;8431;52.458;9.998;2023-05-24T10:37:55;13.50;99.90
16635;DHT22;8431;52.458;9.998;2023-05-24T10:40:22;13.30;99.90
16635;DHT22;8431;52.458;9.998;2023-05-24T10:42:51;13.20;99.90
16635;DHT22;8431;52.458;9.998;2023-05-24T10:45:31;13.20;99.90
16635;DHT22;8431;52.458;9.998;2023-05-24T10:48:06;13.00;99.90
16635;DHT22;8431;52.458;9.998;2023-05-24T10:50:33;12.70;99.90
16635;DHT22;8431;52.458;9.998;2023-05-24T10:53:10;12.80;99.90
16635;DHT22;8431;52.458;9.998;2023-05-24T10:55:51;12.80;99.90
16635;DHT22;8431;52.458;9.998;2023-05-24T10:58:18;13.00;99.90
16635;DHT22;8431;52.458;9.998;2023-05-24T11:00:50;13.40;99.90
16635;DHT22;8431;52.458;9.998;2023-05-24T11:03:18;13.10;99.90
16635;DHT22;8431;52.458;9.998;2023-05-24T11:05:50;13.20;99.90
16635;DHT22;8431;52.458;9.998;2023-05-24T11:08:22;13.30;99.90
16635;DHT22;8431;52.458;9.998;2023-05-24T11:11:01;13.30;99.90
16635;DHT22;8431;52.458;9.998;2023-05-24T11:13:37;13.40;99.90
16635;DHT22;8431;52.458;9.998;2023-05-24T11:16:07;13.60;99.90
16635;DHT22;8431;52.458;9.998;2023-05-24T11:18:35;14.00;99.90
16635;DHT22;8431;52.458;9.998;2023-05-24T11:21:08;13.80;99.90
16635;DHT22;8431;52.458;9.998;2023-05-24T11:23:35;13.70;99.90
16635;DHT22;8431;52.458;9.998;2023-05-24T11:26:05;13.90;99.90
16635;DHT22;8431;52.458;9.998;2023-05-24T11:28:32;13.90;99.90
16635;DHT22;8431;52.458;9.998;2023-05-24T11:31:08;13.90;99.90
16635;DHT22;8431;52.458;9.998;2023-05-24T11:33:40;14.00;99.90
16635;DHT22;8431;52.458;9.998;2023-05-24T11:36:07;14.20;99.90
16635;DHT22;8431;52.458;9.998;2023-05-24T11:38:35;14.20;99.90
16635;DHT22;8431;52.458;9.998;2023-05-24T11:41:02;14.10;99.90
16635;DHT22;8431;52.458;9.998;2023-05-24T11:43:45;14.00;99.90
16635;DHT22;8431;52.458;9.998;2023-05-24T11:46:33;13.80;99.90
16635;DHT22;8431;52.458;9.998;2023-05-24T11:49:04;13.60;99.90
16635;DHT22;8431;52.458;9.998;2023-05-24T11:51:33;13.50;99.90
16635;DHT22;8431;52.458;9.998;2023-05-24T11:54:00;13.70;99.90
16635;DHT22;8431;52.458;9.998;2023-05-24T11:56:30;13.70;99.90
16635;DHT22;8431;52.458;9.998;2023-05-24T11:59:14;13.60;99.90
16635;DHT22;8431;52.458;9.998;2023-05-24T12:01:43;13.30;99.90
16635;DHT22;8431;52.458;9.998;2023-05-24T12:04:10;13.20;99.90
16635;DHT22;8431;52.458;9.998;2023-05-24T12:06:38;13.30;99.90
16635;DHT22;8431;52.458;9.998;2023-05-24T12:09:13;13.50;99.90
16635;DHT22;8431;52.458;9.998;2023-05-24T12:11:46;14.10;99.90
16635;DHT22;8431;52.458;9.998;2023-05-24T12:14:15;14.90;99.90
16635;DHT22;8431;52.458;9.998;2023-05-24T12:16:49;15.40;99.90
16635;DHT22;8431;52.458;9.998;2023-05-24T12:19:16;16.10;99.90
16635;DHT22;8431;52.458;9.998;2023-05-24T12:21:47;16.80;99.90
16635;DHT22;8431;52.458;9.998;2023-05-24T12:24:16;17.30;99.90
16635;DHT22;8431;52.458;9.998;2023-05-24T12:26:45;16.60;99.90
16635;DHT22;8431;52.458;9.998;2023-05-24T12:29:13;16.50;99.90
16635;DHT22;8431;52.458;9.998;2023-05-24T12:31:41;16.20;99.90
16635;DHT22;8431;52.458;9.998;2023-05-24T12:34:12;15.60;99.90
16635;DHT22;8431;52.458;9.998;2023-05-24T12:36:39;15.30;99.90
16635;DHT22;8431;52.458;9.998;2023-05-24T12:39:26;14.60;99.90
16635;DHT22;8431;52.458;9.998;2023-05-24T12:41:57;14.20;99.90
16635;DHT22;8431;52.458;9.998;2023-05-24T12:44:27;13.80;99.90
16635;DHT22;8431;52.458;9.998;2023-05-24T12:46:55;13.70;99.90
16635;DHT22;8431;52.458;9.998;2023-05-24T12:49:24;13.80;99.90
16635;DHT22;8431;52.458;9.998;2023-05-24T12:51:53;14.00;99.90
16635;DHT22;8431;52.458;9.998;2023-05-24T12:54:22;14.50;99.90
16635;DHT22;8431;52.458;9.998;2023-05-24T12:56:49;15.10;99.90
16635;DHT22;8431;52.458;9.998;2023-05-24T12:59:16;15.60;99.90
16635;DHT22;8431;52.458;9.998;2023-05-24T13:01:43;15.80;99.90
16635;DHT22;8431;52.458;9.998;2023-05-24T13:04:16;15.90;99.90
16635;DHT22;8431;52.458;9.998;2023-05-24T13:06:44;16.40;99.90
16635;DHT22;8431;52.458;9.998;2023-05-24T13:09:12;17.00;99.90
16635;DHT22;8431;52.458;9.998;2023-05-24T13:11:40;17.50;99.90
16635;DHT22;8431;52.458;9.998;2023-05-24T13:14:08;17.40;99.90
16635;DHT22;8431;52.458;9.998;2023-05-24T13:16:36;17.10;99.90
16635;DHT22;8431;52.458;9.998;2023-05-24T13:19:03;16.90;99.90
16635;DHT22;8431;52.458;9.998;2023-05-24T13:21:31;16.40;99.90
16635;DHT22;8431;52.458;9.998;2023-05-24T13:24:00;16.30;99.90
16635;DHT22;8431;52.458;9.998;2023-05-24T13:26:27;16.40;99.90
16635;DHT22;8431;52.458;9.998;2023-05-24T13:28:57;16.80;99.90
16635;DHT22;8431;52.458;9.998;2023-05-24T13:31:24;17.30;99.90
16635;DHT22;8431;52.458;9.998;2023-05-24T13:33:51;17.50;99.90
16635;DHT22;8431;52.458;9.998;2023-05-24T13:36:18;17.80;99.90
16635;DHT22;8431;52.458;9.998;2023-05-24T13:38:45;17.90;99.90
16635;DHT22;8431;52.458;9.998;2023-05-24T13:41:13;18.10;99.90
16635;DHT22;8431;52.458;9.998;2023-05-24T13:43:40;17.90;99.90
16635;DHT22;8431;52.458;9.998;2023-05-24T13:46:07;17.70;99.90
16635;DHT22;8431;52.458;9.998;2023-05-24T13:48:37;17.40;99.90
16635;DHT22;8431;52.458;9.998;2023-05-24T13:51:04;17.20;99.90
16635;DHT22;8431;52.458;9.998;2023-05-24T13:53:32;17.20;99.90
16635;DHT22;8431;52.458;9.998;2023-05-24T13:55:59;17.30;99.90
16635;DHT22;8431;52.458;9.998;2023-05-24T13:58:29;17.40;99.90
16635;DHT22;8431;52.458;9.998;2023-05-24T14:00:56;17.10;99.90
16635;DHT22;8431;52.458;9.998;2023-05-24T14:03:23;16.40;99.90
16635;DHT22;8431;52.458;9.998;2023-05-24T14:05:50;16.00;99.90
16635;DHT22;8431;52.458;9.998;2023-05-24T14:08:17;15.90;99.90
16635;DHT22;8431;52.458;9.998;2023-05-24T14:10:49;15.40;99.90
16635;DHT22;8431;52.458;9.998;2023-05-24T14:13:16;15.00;99.90
16635;DHT22;8431;52.458;9.998;2023-05-24T14:15:45;14.80;99.90
16635;DHT22;8431;52.458;9.998;2023-05-24T14:18:14;14.50;99.90
16635;DHT22;8431;52.458;9.998;2023-05-24T14:20:41;14.20;99.90
16635;DHT22;8431;52.458;9.998;2023-05-24T14:23:08;13.80;99.90
16635;DHT22;8431;52.458;9.998;2023-05-24T14:25:35;13.40;99.90
16635;DHT22;8431;52.458;9.998;2023-05-24T14:28:02;13.20;99.90
16635;DHT22;8431;52.458;9.998;2023-05-24T14:30:30;13.10;99.90
16635;DHT22;8431;52.458;9.998;2023-05-24T14:32:59;13.00;99.90
16635;DHT22;8431;52.458;9.998;2023-05-24T14:35:26;12.90;99.90
16635;DHT22;8431;52.458;9.998;2023-05-24T14:37:53;13.00;99.90
16635;DHT22;8431;52.458;9.998;2023-05-24T14:40:20;13.10;99.90
16635;DHT22;8431;52.458;9.998;2023-05-24T14:42:47;13.40;99.90
16635;DHT22;8431;52.458;9.998;2023-05-24T14:45:22;13.60;99.90
16635;DHT22;8431;52.458;9.998;2023-05-24T14:48:10;13.90;99.90
16635;DHT22;8431;52.458;9.998;2023-05-24T14:50:39;14.30;99.90
16635;DHT22;8431;52.458;9.998;2023-05-24T14:53:19;14.60;99.90
16635;DHT22;8431;52.458;9.998;2023-05-24T14:55:46;14.90;99.90
16635;DHT22;8431;52.458;9.998;2023-05-24T14:58:13;15.30;99.90
16635;DHT22;8431;52.458;9.998;2023-05-24T15:00:40;15.60;99.90
16635;DHT22;8431;52.458;9.998;2023-05-24T15:03:09;16.00;99.90
16635;DHT22;8431;52.458;9.998;2023-05-24T15:05:37;16.10;99.90
16635;DHT22;8431;52.458;9.998;2023-05-24T15:08:04;16.10;99.90
16635;DHT22;8431;52.458;9.998;2023-05-24T15:10:35;16.30;99.90
16635;DHT22;8431;52.458;9.998;2023-05-24T15:13:03;16.20;99.90
16635;DHT22;8431;52.458;9.998;2023-05-24T15:15:31;16.10;99.90
16635;DHT22;8431;52.458;9.998;2023-05-24T15:17:58;16.20;99.90
16635;DHT22;8431;52.458;9.998;2023-05-24T15:20:27;16.20;99.90
16635;DHT22;8431;52.458;9.998;2023-05-24T15:22:54;16.10;99.90
16635;DHT22;8431;52.458;9.998;2023-05-24T15:25:21;16.30;99.90
16635;DHT22;8431;52.458;9.998;2023-05-24T15:27:48;16.80;99.90
16635;DHT22;8431;52.458;9.998;2023-05-24T15:30:17;17.10;99.90
16635;DHT22;8431;52.458;9.998;2023-05-24T15:32:44;17.20;99.90
16635;DHT22;8431;52.458;9.998;2023-05-24T15:35:11;17.10;99.90
16635;DHT22;8431;52.458;9.998;2023-05-24T15:37:40;17.00;99.90
16635;DHT22;8431;52.458;9.998;2023-05-24T15:40:09;17.50;99.90
16635;DHT22;8431;52.458;9.998;2023-05-24T15:42:36;17.80;99.90
16635;DHT22;8431;52.458;9.998;2023-05-24T15:45:04;17.40;99.90
16635;DHT22;8431;52.458;9.998;2023-05-24T15:47:31;17.10;99.90
16635;DHT22;8431;52.458;9.998;2023-05-24T15:50:02;17.00;99.90
16635;DHT22;8431;52.458;9.998;2023-05-24T15:52:31;17.10;99.90
16635;DHT22;8431;52.458;9.998;2023-05-24T15:55:00;16.90;99.90
16635;DHT22;8431;52.458;9.998;2023-05-24T15:57:27;16.90;99.90
16635;DHT22;8431;52.458;9.998;2023-05-24T15:59:54;16.80;99.90
16635;DHT22;8431;52.458;9.998;2023-05-24T16:02:21;16.40;99.90
16635;DHT22;8431;52.458;9.998;2023-05-24T16:04:49;16.10;99.90
16635;DHT22;8431;52.458;9.998;2023-05-24T16:07:16;15.80;99.90